Vernon, TX

5:44 AM CST on February 27, 2015 (GMT -0600)
Vernon | Change Station
CLOSE
Current Station
Airport
Location: Vernon,
Elevation: 1266 ft
Nearby Weather Stations
Active Advisory: Winter Weather Advisory

Elev 1266 ft 34.23 °N, 99.28 °W | Updated 9 minutes ago

Overcast
Overcast
25 °F
Feels Like 13 °F
N
14
Wind Variable Wind from ENE

Today
High -- | Low -- °F
--% Chance of Precip.
Yesterday
High -- | Low -- °F
Precip. -- in
7:08 AM 6:31 PM
Waxing Gibbous, 68% visible
Pressure 30.44 in
Visibility 10.0 miles
Clouds Overcast 7500 ft
Windchill 13 °F
Dew Point -4 °F
Humidity 29%
Rainfall 0.00 in
Snow Depth Not available.
UV 0 out of 12
Pollen 6.50 out of 12
Air Quality Not available.
Flu Activity Not available.
METAR KF05 271135Z AUTO 07012KT 10SM OVC075 M04/M20 A3044 RMK AO1 T10401199

More Conditions Fewer Conditions

Pressure 30.44 in
Visibility 10.0 miles
Clouds Overcast 7500 ft
Windchill 13 °F
Dew Point -4 °F
Humidity 29%
Rainfall 0.00 in
Snow Depth Not available.
UV 0 out of 12
Pollen 6.50 out of 12
Air Quality Not available.
Flu Activity Not available.
METAR KF05 271135Z AUTO 07012KT 10SM OVC075 M04/M20 A3044 RMK AO1 T10401199

More Conditions Fewer Conditions

10-Day Weather Forecast

Almanac

Astronomy

Feb. 27, 2015 Rise Set
Actual Time
Civil Twilight
Nautical Twilight
Astronomical Twilight
Moon
Length of Visible Light
Length of Day
Tomorrow will be .
, % of the Moon is Illuminated

Today's Extremes

State Highs State Lows

Community

WunderPhotos

Upload Photos

1,800,656 photos uploaded!

WunderBlogs® & News

Nearby

Air Quality

  Air Quality AQ Index Pollutant
Not available.

Snow Depth

Station Depth Elevation

Earthquake Activity

City Distance Mag. Time & Date
Minimum magnitude displayed is 2.5.

Coastal Water Temperatures

Place Temperature

Nearby Weather Stations

Winter Weather Advisory
Statement as of 3:20 AM CST on February 27, 2015

... Winter Weather Advisory remains in effect from 6 am this
morning to midnight CST tonight...

* timing: light and sometimes moderate snow will move into
southwest Oklahoma and adjacent parts of North Texas through the
morning. The snow will reach south central Oklahoma by mid-day
and light snow will linger after sunset.

* Main impact: 2 to 4 inches of snow.

* Other impacts: slick and hazardous roads are expected.

Precautionary/preparedness actions...

Be careful if you have to travel. Even small amounts of ice and
snow can make roads and sidewalks slick and dangerous.